Weather at Cookstown Airport

Public forecast

Using degrees Celsius for public forecast. Weather courtesy of forecast.io.

Closest aviation weather report (METAR) to Cookstown Airport

Closest report is CFB Borden, 11.9 nm (22.1 km) W. Retrieved 2020/11/30 13:36 UTC (0 seconds ago):

CYBN 301336Z AUTO 19002KT 9SM BKN022 BKN077 BKN091 02/01 A2974

Closest aviation forecast (TAF) to Cookstown Airport

Closest forecast is CFB Borden, 11.9 nm (22.1 km) W. Retrieved 2020/11/30 12:33 UTC (55 minutes ago):

TAF TAF CYBN 301130Z 3012/3024 VRB03KT P6SM FEW025 BKN080 FM301600 35008KT P6SM -RA OVC025 TEMPO 3016/3020 5SM -SHRA BR OVC015 FM302000 35010G20KT 2SM -SHRA BR OVC006 RMK FCST BASED ON AUTO OBS NXT FCST BY 301800Z